Terminal Aerodrome Forecast
Issued by NWS Omaha/Valley, NE

Home | Current Version | Previous Version | Text Only | Print | Product List | Glossary On
Versions: 1 2 3 4 5 6 7 8 9 10 11 12 13 14 15 16 17 18 19 20 21 22 23 24 25 26 27 28 29 30 31 32 33 34
105
FTUS43 KOAX 201819 AAA
TAFOFK
TAF AMD
KOFK 201819Z 2018/2118 09006KT P6SM SCT250
      TEMPO 2019/2022 -RA SCT050
     FM210800 15006KT P6SM SCT200 WS020/20040KT
     FM211100 17008KT P6SM SCT200=

USA.gov is the U.S. government's official web portal to all federal, state and local government web resources and services.